sensor_id;sensor_type;location;lat;lon;timestamp;pressure;altitude;pressure_sealevel;temperature;humidity
44297;BME280;51842;47.450;8.654;2023-02-13T00:02:09;97228.66;;;1.36;100.00
44297;BME280;51842;47.450;8.654;2023-02-13T00:04:41;97238.84;;;1.39;100.00
44297;BME280;51842;47.450;8.654;2023-02-13T00:07:13;97242.94;;;1.42;100.00
44297;BME280;51842;47.450;8.654;2023-02-13T00:09:41;97228.97;;;1.50;100.00
44297;BME280;51842;47.450;8.654;2023-02-13T00:12:08;97232.91;;;1.54;100.00
44297;BME280;51842;47.450;8.654;2023-02-13T00:14:39;97235.03;;;1.58;100.00
44297;BME280;51842;47.450;8.654;2023-02-13T00:17:23;97242.09;;;1.58;100.00
44297;BME280;51842;47.450;8.654;2023-02-13T00:19:51;97245.38;;;1.60;100.00
44297;BME280;51842;47.450;8.654;2023-02-13T00:22:20;97233.06;;;1.60;100.00
44297;BME280;51842;47.450;8.654;2023-02-13T00:24:58;97234.34;;;1.65;100.00
44297;BME280;51842;47.450;8.654;2023-02-13T00:27:26;97231.72;;;1.65;100.00
44297;BME280;51842;47.450;8.654;2023-02-13T00:29:51;97235.66;;;1.69;100.00
44297;BME280;51842;47.450;8.654;2023-02-13T00:32:20;97240.09;;;1.76;100.00
44297;BME280;51842;47.450;8.654;2023-02-13T00:34:49;97240.69;;;1.87;100.00
44297;BME280;51842;47.450;8.654;2023-02-13T00:37:15;97235.44;;;1.87;100.00
44297;BME280;51842;47.450;8.654;2023-02-13T00:39:41;97243.47;;;1.93;100.00
44297;BME280;51842;47.450;8.654;2023-02-13T00:42:16;97235.44;;;1.95;100.00
44297;BME280;51842;47.450;8.654;2023-02-13T00:44:48;97237.53;;;1.99;100.00
44297;BME280;51842;47.450;8.654;2023-02-13T00:47:26;97242.78;;;1.99;100.00
44297;BME280;51842;47.450;8.654;2023-02-13T00:49:52;97238.81;;;2.03;100.00
44297;BME280;51842;47.450;8.654;2023-02-13T00:52:18;97236.69;;;2.07;100.00
44297;BME280;51842;47.450;8.654;2023-02-13T00:54:44;97239.97;;;2.09;100.00
44297;BME280;51842;47.450;8.654;2023-02-13T00:57:15;97238.81;;;2.12;100.00
44297;BME280;51842;47.450;8.654;2023-02-13T00:59:41;97243.91;;;2.13;100.00
44297;BME280;51842;47.450;8.654;2023-02-13T01:02:07;97247.97;;;2.16;100.00
44297;BME280;51842;47.450;8.654;2023-02-13T01:04:33;97248.63;;;2.18;100.00
44297;BME280;51842;47.450;8.654;2023-02-13T01:06:59;97251.28;;;2.18;100.00
44297;BME280;51842;47.450;8.654;2023-02-13T01:09:25;97251.94;;;2.20;100.00
44297;BME280;51842;47.450;8.654;2023-02-13T01:11:53;97252.75;;;2.20;100.00
44297;BME280;51842;47.450;8.654;2023-02-13T01:14:25;97249.31;;;2.20;100.00
44297;BME280;51842;47.450;8.654;2023-02-13T01:16:51;97249.31;;;2.20;100.00
44297;BME280;51842;47.450;8.654;2023-02-13T01:19:20;97248.28;;;2.21;100.00
44297;BME280;51842;47.450;8.654;2023-02-13T01:21:48;97252.41;;;2.23;100.00
44297;BME280;51842;47.450;8.654;2023-02-13T01:24:20;97253.56;;;2.21;100.00
44297;BME280;51842;47.450;8.654;2023-02-13T01:26:49;97252.13;;;2.10;100.00
44297;BME280;51842;47.450;8.654;2023-02-13T01:29:14;97248.66;;;2.09;100.00
44297;BME280;51842;47.450;8.654;2023-02-13T01:31:43;97257.72;;;2.07;100.00
44297;BME280;51842;47.450;8.654;2023-02-13T01:34:12;97259.03;;;2.03;100.00
44297;BME280;51842;47.450;8.654;2023-02-13T01:36:44;97255.94;;;1.99;100.00
44297;BME280;51842;47.450;8.654;2023-02-13T01:39:12;97268.06;;;2.00;100.00
44297;BME280;51842;47.450;8.654;2023-02-13T01:41:38;97262.66;;;2.02;100.00
44297;BME280;51842;47.450;8.654;2023-02-13T01:53:25;97261.19;;;1.99;100.00
44297;BME280;51842;47.450;8.654;2023-02-13T01:59:02;97257.41;;;2.02;100.00
44297;BME280;51842;47.450;8.654;2023-02-13T02:01:31;97254.78;;;2.02;100.00
44297;BME280;51842;47.450;8.654;2023-02-13T02:04:31;97257.88;;;2.05;100.00
44297;BME280;51842;47.450;8.654;2023-02-13T02:07:24;97264.78;;;2.06;100.00
44297;BME280;51842;47.450;8.654;2023-02-13T02:09:59;97258.53;;;2.07;100.00
44297;BME280;51842;47.450;8.654;2023-02-13T02:13:08;97265.63;;;2.07;100.00
44297;BME280;51842;47.450;8.654;2023-02-13T02:15:45;97260.50;;;2.05;100.00
44297;BME280;51842;47.450;8.654;2023-02-13T02:18:22;97259.84;;;2.03;100.00
44297;BME280;51842;47.450;8.654;2023-02-13T02:27:13;97266.44;;;1.99;100.00
44297;BME280;51842;47.450;8.654;2023-02-13T02:43:05;97269.81;;;1.77;100.00
44297;BME280;51842;47.450;8.654;2023-02-13T02:46:37;97265.22;;;1.71;100.00
44297;BME280;51842;47.450;8.654;2023-02-13T02:49:16;97266.38;;;1.68;100.00
44297;BME280;51842;47.450;8.654;2023-02-13T02:52:23;97266.22;;;1.70;100.00
44297;BME280;51842;47.450;8.654;2023-02-13T02:58:59;97273.25;;;1.77;100.00
44297;BME280;51842;47.450;8.654;2023-02-13T03:01:45;97262.72;;;1.77;100.00
44297;BME280;51842;47.450;8.654;2023-02-13T03:04:49;97274.06;;;1.78;100.00
44297;BME280;51842;47.450;8.654;2023-02-13T03:07:58;97268.97;;;1.76;100.00
44297;BME280;51842;47.450;8.654;2023-02-13T03:10:35;97271.28;;;1.79;100.00
44297;BME280;51842;47.450;8.654;2023-02-13T03:13:45;97275.19;;;1.83;100.00
44297;BME280;51842;47.450;8.654;2023-02-13T03:16:33;97277.50;;;1.87;100.00
44297;BME280;51842;47.450;8.654;2023-02-13T03:20:03;97278.31;;;1.87;100.00
44297;BME280;51842;47.450;8.654;2023-02-13T03:23:13;97281.44;;;1.82;100.00
44297;BME280;51842;47.450;8.654;2023-02-13T03:26:14;97285.56;;;1.85;100.00
44297;BME280;51842;47.450;8.654;2023-02-13T03:39:57;97292.63;;;1.76;100.00
44297;BME280;51842;47.450;8.654;2023-02-13T03:42:53;97292.78;;;1.75;100.00
44297;BME280;51842;47.450;8.654;2023-02-13T03:45:34;97301.31;;;1.77;100.00
44297;BME280;51842;47.450;8.654;2023-02-13T03:48:38;97297.72;;;1.78;100.00
44297;BME280;51842;47.450;8.654;2023-02-13T03:54:47;97302.31;;;1.76;100.00
44297;BME280;51842;47.450;8.654;2023-02-13T03:57:43;97308.22;;;1.78;100.00
44297;BME280;51842;47.450;8.654;2023-02-13T04:00:41;97307.25;;;1.79;100.00
44297;BME280;51842;47.450;8.654;2023-02-13T04:06:10;97314.28;;;1.78;100.00
44297;BME280;51842;47.450;8.654;2023-02-13T04:08:37;97314.28;;;1.78;100.00
44297;BME280;51842;47.450;8.654;2023-02-13T04:11:36;97316.09;;;1.78;100.00
44297;BME280;51842;47.450;8.654;2023-02-13T04:14:28;97313.66;;;1.76;100.00
44297;BME280;51842;47.450;8.654;2023-02-13T04:17:15;97328.59;;;1.76;100.00
44297;BME280;51842;47.450;8.654;2023-02-13T04:19:43;97318.91;;;1.76;100.00
44297;BME280;51842;47.450;8.654;2023-02-13T04:22:13;97319.06;;;1.75;100.00
44297;BME280;51842;47.450;8.654;2023-02-13T04:24:39;97320.06;;;1.74;100.00
44297;BME280;51842;47.450;8.654;2023-02-13T04:27:15;97323.50;;;1.74;100.00
44297;BME280;51842;47.450;8.654;2023-02-13T04:29:41;97324.97;;;1.77;100.00
44297;BME280;51842;47.450;8.654;2023-02-13T04:32:11;97322.69;;;1.74;100.00
44297;BME280;51842;47.450;8.654;2023-02-13T04:34:38;97325.31;;;1.74;100.00
44297;BME280;51842;47.450;8.654;2023-02-13T04:37:11;97324.66;;;1.72;100.00
44297;BME280;51842;47.450;8.654;2023-02-13T04:39:37;97323.00;;;1.71;100.00
44297;BME280;51842;47.450;8.654;2023-02-13T04:42:03;97323.84;;;1.71;100.00
44297;BME280;51842;47.450;8.654;2023-02-13T04:44:44;97323.50;;;1.74;100.00
44297;BME280;51842;47.450;8.654;2023-02-13T04:47:10;97318.09;;;1.68;100.00
44297;BME280;51842;47.450;8.654;2023-02-13T04:49:39;97318.09;;;1.68;100.00
44297;BME280;51842;47.450;8.654;2023-02-13T04:52:04;97318.28;;;1.66;100.00
44297;BME280;51842;47.450;8.654;2023-02-13T04:54:30;97321.72;;;1.67;100.00
44297;BME280;51842;47.450;8.654;2023-02-13T04:56:56;97320.38;;;1.62;100.00
44297;BME280;51842;47.450;8.654;2023-02-13T04:59:22;97323.19;;;1.61;100.00
44297;BME280;51842;47.450;8.654;2023-02-13T05:01:48;97328.44;;;1.61;100.00
44297;BME280;51842;47.450;8.654;2023-02-13T05:04:13;97323.00;;;1.62;100.00
44297;BME280;51842;47.450;8.654;2023-02-13T05:06:41;97320.22;;;1.64;100.00
44297;BME280;51842;47.450;8.654;2023-02-13T05:09:09;97327.13;;;1.65;100.00
44297;BME280;51842;47.450;8.654;2023-02-13T05:11:38;97324.19;;;1.60;100.00
44297;BME280;51842;47.450;8.654;2023-02-13T05:14:13;97328.78;;;1.58;100.00
44297;BME280;51842;47.450;8.654;2023-02-13T05:16:39;97329.59;;;1.58;100.00
44297;BME280;51842;47.450;8.654;2023-02-13T05:19:05;97325.34;;;1.57;100.00
44297;BME280;51842;47.450;8.654;2023-02-13T05:21:33;97332.53;;;1.55;100.00
44297;BME280;51842;47.450;8.654;2023-02-13T05:24:20;97329.09;;;1.55;100.00
44297;BME280;51842;47.450;8.654;2023-02-13T05:26:51;97328.28;;;1.54;100.00
44297;BME280;51842;47.450;8.654;2023-02-13T05:29:17;97330.91;;;1.54;100.00
44297;BME280;51842;47.450;8.654;2023-02-13T05:31:54;97336.50;;;1.51;100.00
44297;BME280;51842;47.450;8.654;2023-02-13T05:34:24;97336.16;;;1.46;100.00
44297;BME280;51842;47.450;8.654;2023-02-13T05:36:51;97337.47;;;1.42;100.00
44297;BME280;51842;47.450;8.654;2023-02-13T05:39:17;97332.22;;;1.42;100.00
44297;BME280;51842;47.450;8.654;2023-02-13T05:41:45;97333.84;;;1.43;100.00
44297;BME280;51842;47.450;8.654;2023-02-13T05:44:15;97331.41;;;1.42;100.00
44297;BME280;51842;47.450;8.654;2023-02-13T05:46:43;97334.84;;;1.42;100.00
44297;BME280;51842;47.450;8.654;2023-02-13T05:49:15;97332.56;;;1.39;100.00
44297;BME280;51842;47.450;8.654;2023-02-13T05:51:42;97338.63;;;1.39;100.00
44297;BME280;51842;47.450;8.654;2023-02-13T05:54:11;97333.38;;;1.39;100.00
44297;BME280;51842;47.450;8.654;2023-02-13T05:56:40;97333.38;;;1.39;100.00
44297;BME280;51842;47.450;8.654;2023-02-13T05:59:09;97335.50;;;1.36;100.00
44297;BME280;51842;47.450;8.654;2023-02-13T06:01:34;97336.66;;;1.33;100.00
44297;BME280;51842;47.450;8.654;2023-02-13T06:04:04;97341.09;;;1.33;100.00
44297;BME280;51842;47.450;8.654;2023-02-13T06:06:33;97339.13;;;1.35;100.00
44297;BME280;51842;47.450;8.654;2023-02-13T06:08:58;97336.31;;;1.36;100.00
44297;BME280;51842;47.450;8.654;2023-02-13T06:11:28;97341.75;;;1.35;100.00
44297;BME280;51842;47.450;8.654;2023-02-13T06:13:56;97343.22;;;1.29;100.00
44297;BME280;51842;47.450;8.654;2023-02-13T06:16:22;97345.50;;;1.24;100.00
44297;BME280;51842;47.450;8.654;2023-02-13T06:18:48;97349.94;;;1.24;100.00
44297;BME280;51842;47.450;8.654;2023-02-13T06:21:16;97349.28;;;1.22;100.00
44297;BME280;51842;47.450;8.654;2023-02-13T06:23:42;97355.84;;;1.18;100.00
44297;BME280;51842;47.450;8.654;2023-02-13T06:26:08;97354.69;;;1.20;100.00
44297;BME280;51842;47.450;8.654;2023-02-13T06:28:35;97362.88;;;1.25;100.00
44297;BME280;51842;47.450;8.654;2023-02-13T06:31:01;97364.88;;;1.23;100.00
44297;BME280;51842;47.450;8.654;2023-02-13T06:33:26;97365.03;;;1.22;100.00
44297;BME280;51842;47.450;8.654;2023-02-13T06:35:52;97356.81;;;1.25;100.00
44297;BME280;51842;47.450;8.654;2023-02-13T06:38:21;97365.38;;;1.27;100.00
44297;BME280;51842;47.450;8.654;2023-02-13T06:40:48;97364.19;;;1.21;100.00
44297;BME280;51842;47.450;8.654;2023-02-13T06:43:18;97368.31;;;1.24;100.00
44297;BME280;51842;47.450;8.654;2023-02-13T06:45:44;97359.63;;;1.23;100.00
44297;BME280;51842;47.450;8.654;2023-02-13T06:48:11;97369.47;;;1.29;100.00
44297;BME280;51842;47.450;8.654;2023-02-13T06:50:38;97365.19;;;1.28;100.00
44297;BME280;51842;47.450;8.654;2023-02-13T06:53:10;97372.75;;;1.31;100.00
44297;BME280;51842;47.450;8.654;2023-02-13T06:55:36;97378.66;;;1.33;100.00
44297;BME280;51842;47.450;8.654;2023-02-13T06:58:05;97375.22;;;1.33;100.00
44297;BME280;51842;47.450;8.654;2023-02-13T07:00:31;97372.41;;;1.34;100.00
44297;BME280;51842;47.450;8.654;2023-02-13T07:03:05;97383.78;;;1.35;100.00
44297;BME280;51842;47.450;8.654;2023-02-13T07:05:32;97382.59;;;1.37;100.00
44297;BME280;51842;47.450;8.654;2023-02-13T07:07:58;97384.09;;;1.40;100.00
44297;BME280;51842;47.450;8.654;2023-02-13T07:10:24;97382.59;;;1.37;100.00
44297;BME280;51842;47.450;8.654;2023-02-13T07:12:50;97380.81;;;1.38;100.00
44297;BME280;51842;47.450;8.654;2023-02-13T07:15:16;97379.66;;;1.41;100.00
44297;BME280;51842;47.450;8.654;2023-02-13T07:17:44;97372.44;;;1.43;100.00
44297;BME280;51842;47.450;8.654;2023-02-13T07:20:10;97379.66;;;1.41;100.00
44297;BME280;51842;47.450;8.654;2023-02-13T07:22:36;97378.00;;;1.39;100.00
44297;BME280;51842;47.450;8.654;2023-02-13T07:25:02;97373.25;;;1.43;100.00
44297;BME280;51842;47.450;8.654;2023-02-13T07:27:28;97380.66;;;1.48;100.00
44297;BME280;51842;47.450;8.654;2023-02-13T07:29:58;97375.22;;;1.49;100.00
44297;BME280;51842;47.450;8.654;2023-02-13T07:32:24;97384.75;;;1.50;100.00
44297;BME280;51842;47.450;8.654;2023-02-13T07:34:50;97378.66;;;1.50;100.00
44297;BME280;51842;47.450;8.654;2023-02-13T07:37:19;97386.88;;;1.47;100.00
44297;BME280;51842;47.450;8.654;2023-02-13T07:39:48;97387.72;;;1.55;100.00
44297;BME280;51842;47.450;8.654;2023-02-13T07:42:26;97395.13;;;1.60;100.00
44297;BME280;51842;47.450;8.654;2023-02-13T07:44:51;97395.13;;;1.60;100.00
44297;BME280;51842;47.450;8.654;2023-02-13T07:47:24;97400.84;;;1.64;100.00
44297;BME280;51842;47.450;8.654;2023-02-13T07:49:50;97397.06;;;1.58;100.00
44297;BME280;51842;47.450;8.654;2023-02-13T07:52:21;97399.19;;;1.62;100.00
44297;BME280;51842;47.450;8.654;2023-02-13T07:54:57;97398.88;;;1.66;100.00
44297;BME280;51842;47.450;8.654;2023-02-13T07:57:34;97389.53;;;1.63;100.00
44297;BME280;51842;47.450;8.654;2023-02-13T08:00:06;97396.75;;;1.61;100.00
44297;BME280;51842;47.450;8.654;2023-02-13T08:02:32;97399.38;;;1.61;100.00
44297;BME280;51842;47.450;8.654;2023-02-13T08:04:58;97386.56;;;1.66;100.00
44297;BME280;51842;47.450;8.654;2023-02-13T08:07:24;97391.16;;;1.72;100.00
44297;BME280;51842;47.450;8.654;2023-02-13T08:09:53;97398.38;;;1.78;100.00
44297;BME280;51842;47.450;8.654;2023-02-13T08:12:37;97393.97;;;1.79;100.00
44297;BME280;51842;47.450;8.654;2023-02-13T08:15:13;97388.53;;;1.80;100.00
44297;BME280;51842;47.450;8.654;2023-02-13T08:17:40;97395.09;;;1.84;100.00
44297;BME280;51842;47.450;8.654;2023-02-13T08:20:08;97392.78;;;1.90;100.00
44297;BME280;51842;47.450;8.654;2023-02-13T08:22:37;97394.75;;;1.88;100.00
44297;BME280;51842;47.450;8.654;2023-02-13T08:25:07;97391.97;;;1.89;100.00
44297;BME280;51842;47.450;8.654;2023-02-13T08:27:44;97393.94;;;1.95;100.00
44297;BME280;51842;47.450;8.654;2023-02-13T08:30:25;97392.94;;;1.96;100.00
44297;BME280;51842;47.450;8.654;2023-02-13T08:32:55;97397.72;;;2.01;100.00
44297;BME280;51842;47.450;8.654;2023-02-13T08:35:23;97401.16;;;2.01;100.00
44297;BME280;51842;47.450;8.654;2023-02-13T08:37:52;97395.06;;;2.09;100.00
44297;BME280;51842;47.450;8.654;2023-02-13T08:40:19;97396.56;;;2.12;100.00
44297;BME280;51842;47.450;8.654;2023-02-13T08:42:51;97393.41;;;2.16;100.00
44297;BME280;51842;47.450;8.654;2023-02-13T08:45:19;97402.13;;;2.17;100.00
44297;BME280;51842;47.450;8.654;2023-02-13T08:47:45;97403.28;;;2.14;100.00
44297;BME280;51842;47.450;8.654;2023-02-13T08:50:11;97393.75;;;2.05;100.00
44297;BME280;51842;47.450;8.654;2023-02-13T08:52:37;97404.94;;;2.07;100.00
44297;BME280;51842;47.450;8.654;2023-02-13T08:55:03;97406.41;;;2.09;100.00
44297;BME280;51842;47.450;8.654;2023-02-13T08:57:29;97401.47;;;2.15;100.00
44297;BME280;51842;47.450;8.654;2023-02-13T08:59:55;97410.34;;;2.14;100.00
44297;BME280;51842;47.450;8.654;2023-02-13T09:02:21;97409.22;;;2.08;100.00
44297;BME280;51842;47.450;8.654;2023-02-13T09:04:47;97406.25;;;2.11;100.00
44297;BME280;51842;47.450;8.654;2023-02-13T09:07:13;97419.38;;;2.19;100.00
44297;BME280;51842;47.450;8.654;2023-02-13T09:09:41;97419.84;;;2.31;100.00
44297;BME280;51842;47.450;8.654;2023-02-13T09:12:07;97418.84;;;2.40;100.00
44297;BME280;51842;47.450;8.654;2023-02-13T09:14:33;97419.34;;;2.36;100.00
44297;BME280;51842;47.450;8.654;2023-02-13T09:16:59;97415.06;;;2.43;100.00
44297;BME280;51842;47.450;8.654;2023-02-13T09:19:25;97412.09;;;2.54;100.00
44297;BME280;51842;47.450;8.654;2023-02-13T09:21:51;97409.06;;;2.65;99.99
44297;BME280;51842;47.450;8.654;2023-02-13T09:24:19;97412.50;;;2.74;99.69
44297;BME280;51842;47.450;8.654;2023-02-13T09:26:45;97410.69;;;2.74;98.39
44297;BME280;51842;47.450;8.654;2023-02-13T09:29:14;97411.13;;;2.86;98.23
44297;BME280;51842;47.450;8.654;2023-02-13T09:31:46;97408.97;;;2.90;97.16
44297;BME280;51842;47.450;8.654;2023-02-13T09:34:12;97410.78;;;2.89;96.06
44297;BME280;51842;47.450;8.654;2023-02-13T09:36:45;97420.66;;;2.87;95.57
44297;BME280;51842;47.450;8.654;2023-02-13T09:39:14;97419.09;;;2.70;95.45
44297;BME280;51842;47.450;8.654;2023-02-13T09:41:45;97411.47;;;2.83;96.06
44297;BME280;51842;47.450;8.654;2023-02-13T09:44:36;97407.84;;;2.84;96.86
44297;BME280;51842;47.450;8.654;2023-02-13T09:50:23;97413.34;;;3.06;96.33
44297;BME280;51842;47.450;8.654;2023-02-13T09:52:54;97406.13;;;2.99;95.36
44297;BME280;51842;47.450;8.654;2023-02-13T09:55:42;97412.88;;;3.02;95.06
44297;BME280;51842;47.450;8.654;2023-02-13T09:58:51;97413.78;;;3.17;94.95
44297;BME280;51842;47.450;8.654;2023-02-13T10:04:43;97415.53;;;3.25;93.67
44297;BME280;51842;47.450;8.654;2023-02-13T10:15:06;97416.31;;;3.57;92.36
44297;BME280;51842;47.450;8.654;2023-02-13T10:17:44;97413.75;;;3.71;91.98
44297;BME280;51842;47.450;8.654;2023-02-13T10:20:47;97418.63;;;3.83;91.64
44297;BME280;51842;47.450;8.654;2023-02-13T10:28:56;97413.63;;;3.88;88.76
44297;BME280;51842;47.450;8.654;2023-02-13T10:31:49;97408.63;;;3.93;89.27
44297;BME280;51842;47.450;8.654;2023-02-13T10:34:25;97411.28;;;3.93;88.36
44297;BME280;51842;47.450;8.654;2023-02-13T10:36:53;97404.59;;;3.82;87.89
44297;BME280;51842;47.450;8.654;2023-02-13T10:39:30;97400.38;;;3.96;87.77
44297;BME280;51842;47.450;8.654;2023-02-13T10:45:56;97392.72;;;3.86;88.06
44297;BME280;51842;47.450;8.654;2023-02-13T11:01:34;97383.69;;;4.63;84.01
44297;BME280;51842;47.450;8.654;2023-02-13T11:04:13;97386.41;;;4.84;83.85
44297;BME280;51842;47.450;8.654;2023-02-13T11:07:01;97381.63;;;5.09;83.22
44297;BME280;51842;47.450;8.654;2023-02-13T11:09:36;97378.69;;;5.19;81.71
44297;BME280;51842;47.450;8.654;2023-02-13T11:12:29;97376.66;;;5.36;80.37
44297;BME280;51842;47.450;8.654;2023-02-13T11:15:04;97377.31;;;5.45;80.34
44297;BME280;51842;47.450;8.654;2023-02-13T11:17:38;97370.38;;;5.22;79.76
44297;BME280;51842;47.450;8.654;2023-02-13T11:20:39;97375.94;;;5.27;80.03
44297;BME280;51842;47.450;8.654;2023-02-13T11:26:26;97377.91;;;5.62;79.98
44297;BME280;51842;47.450;8.654;2023-02-13T11:28:56;97367.94;;;5.85;77.80
44297;BME280;51842;47.450;8.654;2023-02-13T11:31:35;97358.75;;;6.02;77.65
44297;BME280;51842;47.450;8.654;2023-02-13T11:34:37;97363.03;;;6.32;76.69
44297;BME280;51842;47.450;8.654;2023-02-13T11:39:40;97358.84;;;6.16;74.71
44297;BME280;51842;47.450;8.654;2023-02-13T11:45:30;97354.63;;;7.11;73.89
44297;BME280;51842;47.450;8.654;2023-02-13T11:47:56;97355.31;;;7.33;71.51
44297;BME280;51842;47.450;8.654;2023-02-13T11:50:31;97356.19;;;7.67;69.72
44297;BME280;51842;47.450;8.654;2023-02-13T11:53:20;97348.00;;;8.08;68.90
44297;BME280;51842;47.450;8.654;2023-02-13T11:56:12;97360.47;;;8.41;66.45
44297;BME280;51842;47.450;8.654;2023-02-13T11:58:40;97356.97;;;8.53;65.87
44297;BME280;51842;47.450;8.654;2023-02-13T12:04:16;97353.81;;;8.83;63.52
44297;BME280;51842;47.450;8.654;2023-02-13T12:10:24;97347.66;;;9.34;62.47
44297;BME280;51842;47.450;8.654;2023-02-13T12:13:37;97342.72;;;9.38;62.49
44297;BME280;51842;47.450;8.654;2023-02-13T12:16:51;97333.56;;;9.65;60.83
44297;BME280;51842;47.450;8.654;2023-02-13T12:19:42;97332.19;;;9.81;59.90
44297;BME280;51842;47.450;8.654;2023-02-13T12:29:07;97317.69;;;10.64;57.84
44297;BME280;51842;47.450;8.654;2023-02-13T12:32:18;97317.41;;;10.72;57.51
44297;BME280;51842;47.450;8.654;2023-02-13T12:44:58;97308.53;;;11.08;54.74
44297;BME280;51842;47.450;8.654;2023-02-13T12:47:38;97315.44;;;11.16;55.48
44297;BME280;51842;47.450;8.654;2023-02-13T12:50:56;97316.63;;;11.02;55.50
44297;BME280;51842;47.450;8.654;2023-02-13T12:54:20;97315.78;;;11.20;54.94
44297;BME280;51842;47.450;8.654;2023-02-13T13:04:13;97299.03;;;11.96;52.53
44297;BME280;51842;47.450;8.654;2023-02-13T13:07:17;97298.59;;;12.23;51.88
44297;BME280;51842;47.450;8.654;2023-02-13T13:12:53;97294.72;;;12.54;51.04
44297;BME280;51842;47.450;8.654;2023-02-13T13:21:50;97297.91;;;12.91;49.84
44297;BME280;51842;47.450;8.654;2023-02-13T13:27:37;97284.47;;;13.03;49.56
44297;BME280;51842;47.450;8.654;2023-02-13T13:30:32;97274.38;;;13.34;49.21
44297;BME280;51842;47.450;8.654;2023-02-13T13:33:22;97279.81;;;13.10;49.02
44297;BME280;51842;47.450;8.654;2023-02-13T13:36:15;97278.00;;;13.28;48.75
44297;BME280;51842;47.450;8.654;2023-02-13T13:39:35;97272.53;;;13.23;48.39
44297;BME280;51842;47.450;8.654;2023-02-13T13:48:30;97264.44;;;13.80;47.25
44297;BME280;51842;47.450;8.654;2023-02-13T13:51:04;97261.66;;;13.75;46.44
44297;BME280;51842;47.450;8.654;2023-02-13T13:53:31;97269.13;;;13.56;47.57
44297;BME280;51842;47.450;8.654;2023-02-13T13:56:02;97264.09;;;13.42;47.94
44297;BME280;51842;47.450;8.654;2023-02-13T13:58:46;97264.56;;;13.39;47.54
44297;BME280;51842;47.450;8.654;2023-02-13T14:03:43;97257.59;;;13.55;46.66
44297;BME280;51842;47.450;8.654;2023-02-13T14:06:15;97274.78;;;13.59;46.26
44297;BME280;51842;47.450;8.654;2023-02-13T14:11:41;97267.72;;;13.53;46.41
44297;BME280;51842;47.450;8.654;2023-02-13T14:14:44;97273.34;;;13.23;46.52
44297;BME280;51842;47.450;8.654;2023-02-13T14:17:14;97275.56;;;12.98;47.38
44297;BME280;51842;47.450;8.654;2023-02-13T14:19:52;97270.34;;;13.19;48.03
44297;BME280;51842;47.450;8.654;2023-02-13T14:25:06;97261.00;;;13.22;46.87
44297;BME280;51842;47.450;8.654;2023-02-13T14:27:59;97265.03;;;13.36;46.91
44297;BME280;51842;47.450;8.654;2023-02-13T14:30:35;97257.59;;;13.55;46.73
44297;BME280;51842;47.450;8.654;2023-02-13T14:33:28;97254.44;;;13.75;46.64
44297;BME280;51842;47.450;8.654;2023-02-13T14:36:20;97261.50;;;13.64;46.80
44297;BME280;51842;47.450;8.654;2023-02-13T14:44:46;97257.25;;;13.35;46.74
44297;BME280;51842;47.450;8.654;2023-02-13T14:47:40;97255.66;;;13.22;46.93
44297;BME280;51842;47.450;8.654;2023-02-13T14:52:49;97246.88;;;13.10;48.22
44297;BME280;51842;47.450;8.654;2023-02-13T14:55:42;97254.72;;;13.00;47.89
44297;BME280;51842;47.450;8.654;2023-02-13T14:58:30;97252.84;;;13.00;47.92
44297;BME280;51842;47.450;8.654;2023-02-13T15:06:44;97243.22;;;12.59;47.88
44297;BME280;51842;47.450;8.654;2023-02-13T15:09:31;97243.97;;;12.42;48.13
44297;BME280;51842;47.450;8.654;2023-02-13T15:11:58;97245.03;;;12.41;48.16
44297;BME280;51842;47.450;8.654;2023-02-13T15:14:33;97245.16;;;12.35;48.75
44297;BME280;51842;47.450;8.654;2023-02-13T15:17:18;97244.38;;;12.11;49.17
44297;BME280;51842;47.450;8.654;2023-02-13T15:19:54;97241.44;;;12.12;49.65
44297;BME280;51842;47.450;8.654;2023-02-13T15:22:39;97244.09;;;12.24;49.69
44297;BME280;51842;47.450;8.654;2023-02-13T15:25:19;97236.69;;;12.26;49.20
44297;BME280;51842;47.450;8.654;2023-02-13T15:27:52;97237.03;;;12.06;49.38
44297;BME280;51842;47.450;8.654;2023-02-13T15:30:30;97239.03;;;11.99;49.94
44297;BME280;51842;47.450;8.654;2023-02-13T15:33:18;97235.47;;;11.40;51.27
44297;BME280;51842;47.450;8.654;2023-02-13T15:36:03;97230.09;;;11.28;53.87
44297;BME280;51842;47.450;8.654;2023-02-13T15:38:36;97232.00;;;10.97;56.46
44297;BME280;51842;47.450;8.654;2023-02-13T15:41:19;97225.22;;;10.83;57.19
44297;BME280;51842;47.450;8.654;2023-02-13T15:43:51;97231.69;;;10.57;58.29
44297;BME280;51842;47.450;8.654;2023-02-13T15:46:35;97237.41;;;10.42;59.50
44297;BME280;51842;47.450;8.654;2023-02-13T15:49:19;97228.28;;;10.13;60.41
44297;BME280;51842;47.450;8.654;2023-02-13T15:51:50;97235.66;;;9.92;60.74
44297;BME280;51842;47.450;8.654;2023-02-13T15:54:35;97230.03;;;9.57;61.37
44297;BME280;51842;47.450;8.654;2023-02-13T15:57:08;97231.59;;;9.40;62.04
44297;BME280;51842;47.450;8.654;2023-02-13T15:59:38;97228.06;;;9.21;62.81
44297;BME280;51842;47.450;8.654;2023-02-13T16:02:21;97231.25;;;9.04;63.80
44297;BME280;51842;47.450;8.654;2023-02-13T16:05:00;97231.00;;;8.81;64.30
44297;BME280;51842;47.450;8.654;2023-02-13T16:07:30;97229.72;;;8.45;65.61
44297;BME280;51842;47.450;8.654;2023-02-13T16:10:33;97225.47;;;8.18;66.64
44297;BME280;51842;47.450;8.654;2023-02-13T16:13:05;97221.88;;;7.99;67.16
44297;BME280;51842;47.450;8.654;2023-02-13T16:15:36;97224.78;;;7.77;68.09
44297;BME280;51842;47.450;8.654;2023-02-13T16:18:19;97223.97;;;7.57;68.90
44297;BME280;51842;47.450;8.654;2023-02-13T16:20:45;97215.22;;;7.30;69.93
44297;BME280;51842;47.450;8.654;2023-02-13T16:23:19;97218.66;;;7.04;71.03
44297;BME280;51842;47.450;8.654;2023-02-13T16:25:49;97217.78;;;6.77;72.40
44297;BME280;51842;47.450;8.654;2023-02-13T16:28:25;97220.81;;;6.67;72.90
44297;BME280;51842;47.450;8.654;2023-02-13T16:31:02;97216.28;;;6.47;73.58
44297;BME280;51842;47.450;8.654;2023-02-13T16:33:33;97219.69;;;6.28;73.83
44297;BME280;51842;47.450;8.654;2023-02-13T16:38:43;97216.28;;;5.71;75.94
44297;BME280;51842;47.450;8.654;2023-02-13T16:52:15;97229.19;;;4.46;81.29